Time;durP1;ratioP1;P1;durP2;ratioP2;P2;SDS_P1;SDS_P2;PMS_P1;PMS_P2;Temp;Humidity;BMP_temperature;BMP_pressure;BME280_temperature;BME280_humidity;BME280_pressure;Samples;Min_cycle;Max_cycle;Signal;HPM_P1;HPM_P2
2022/09/20 00:01:30;;;;;;;5.80;4.00;;;11.90;99.90;;;;;;5115854;28;20191;-92
2022/09/20 00:04:01;;;;;;;11.50;4.07;;;11.90;99.90;;;;;;5115494;28;20206;-92
2022/09/20 00:06:32;;;;;;;5.20;3.77;;;11.80;99.90;;;;;;5115540;28;20211;-93
2022/09/20 00:09:02;;;;;;;5.97;3.60;;;11.70;99.90;;;;;;5115486;28;20199;-93
2022/09/20 00:11:33;;;;;;;4.10;3.60;;;11.70;99.90;;;;;;5115694;28;20186;-91
2022/09/20 00:14:04;;;;;;;7.88;3.80;;;11.70;99.90;;;;;;5115533;28;20432;-91
2022/09/20 00:16:38;;;;;;;5.67;3.37;;;11.60;99.90;;;;;;5115262;28;20198;-92
2022/09/20 00:19:09;;;;;;;7.23;3.50;;;11.60;99.90;;;;;;5115129;28;20194;-92
2022/09/20 00:21:36;;;;;;;6.53;3.77;;;11.60;99.90;;;;;;5115224;28;20207;-91
2022/09/20 00:24:04;;;;;;;7.47;3.80;;;11.70;99.90;;;;;;5115350;28;20638;-91
2022/09/20 00:26:31;;;;;;;5.93;3.80;;;11.70;99.90;;;;;;5116417;28;20187;-92
2022/09/20 00:29:01;;;;;;;7.03;3.83;;;11.70;99.90;;;;;;5122515;28;20190;-92
2022/09/20 00:31:29;;;;;;;5.80;3.37;;;11.70;99.90;;;;;;5115470;28;20190;-92
2022/09/20 00:36:45;;;;;;;7.97;4.23;;;11.60;99.90;;;;;;5114897;28;20197;-93
2022/09/20 00:39:18;;;;;;;7.65;4.97;;;11.60;99.90;;;;;;5114460;28;20428;-91
2022/09/20 00:41:51;;;;;;;8.00;3.90;;;11.60;99.90;;;;;;5114915;28;20207;-91
2022/09/20 00:44:44;;;;;;;4.63;3.80;;;11.60;99.90;;;;;;5114934;28;20202;-91
2022/09/20 00:47:26;;;;;;;6.63;4.33;;;11.50;99.90;;;;;;5114617;28;20201;-91
2022/09/20 00:49:58;;;;;;;5.70;3.90;;;11.50;99.90;;;;;;5114880;28;20182;-91
2022/09/20 00:52:28;;;;;;;6.60;4.17;;;11.60;99.90;;;;;;5115293;28;20197;-91
2022/09/20 00:54:57;;;;;;;8.23;4.00;;;11.60;99.90;;;;;;5115044;28;20213;-91
2022/09/20 00:57:26;;;;;;;5.60;4.23;;;11.60;99.90;;;;;;5114968;28;20286;-92
2022/09/20 00:59:54;;;;;;;6.13;4.40;;;11.50;99.90;;;;;;5114910;28;20229;-88
2022/09/20 01:02:25;;;;;;;11.03;4.40;;;11.40;99.90;;;;;;5126226;28;20212;-89
2022/09/20 01:04:56;;;;;;;4.93;3.90;;;11.40;99.90;;;;;;5126356;28;20205;-92
2022/09/20 01:07:24;;;;;;;8.20;3.97;;;11.40;99.90;;;;;;5125622;28;20189;-88
2022/09/20 01:09:51;;;;;;;6.20;3.60;;;11.40;99.90;;;;;;5120575;28;20213;-91
2022/09/20 01:12:23;;;;;;;6.77;3.80;;;11.40;99.90;;;;;;5114998;28;20201;-92
2022/09/20 01:14:53;;;;;;;6.53;3.90;;;11.30;99.90;;;;;;5115454;28;20202;-87
2022/09/20 01:17:24;;;;;;;6.47;4.13;;;11.30;99.90;;;;;;5115400;28;20200;-90
2022/09/20 01:20:11;;;;;;;6.37;4.93;;;11.30;99.90;;;;;;5114377;28;20213;-91
2022/09/20 01:22:57;;;;;;;7.33;4.20;;;11.20;99.90;;;;;;5114449;28;20251;-88
2022/09/20 01:25:47;;;;;;;8.73;4.00;;;11.10;99.90;;;;;;5117950;28;20211;-86
2022/09/20 01:28:18;;;;;;;6.00;4.20;;;11.00;99.90;;;;;;5114859;28;20578;-90
2022/09/20 01:30:48;;;;;;;6.83;4.37;;;11.10;99.90;;;;;;5113297;28;20189;-85
2022/09/20 01:33:26;;;;;;;6.30;4.87;;;11.10;99.90;;;;;;5113338;28;20200;-84
2022/09/20 01:35:54;;;;;;;11.97;4.57;;;11.00;99.90;;;;;;5113140;28;20576;-84
2022/09/20 01:38:34;;;;;;;7.30;4.77;;;11.10;99.90;;;;;;5113187;28;20205;-82
2022/09/20 01:41:06;;;;;;;5.43;4.00;;;11.10;99.90;;;;;;5112965;28;20224;-83
2022/09/20 01:43:40;;;;;;;6.33;4.20;;;11.10;99.90;;;;;;5116285;28;20198;-84
2022/09/20 01:46:20;;;;;;;6.80;4.57;;;11.20;99.90;;;;;;5116462;28;20212;-84
2022/09/20 01:48:49;;;;;;;7.57;4.00;;;11.10;99.90;;;;;;5116758;28;20204;-84
2022/09/20 01:51:47;;;;;;;6.93;4.50;;;11.00;99.90;;;;;;5116325;28;20205;-83
2022/09/20 01:54:46;;;;;;;8.70;4.73;;;11.10;99.90;;;;;;5116489;28;20259;-83
2022/09/20 01:57:36;;;;;;;6.40;4.00;;;11.10;99.90;;;;;;5116325;28;20234;-84
2022/09/20 02:00:12;;;;;;;7.73;3.60;;;11.10;99.90;;;;;;5116173;28;20226;-83
2022/09/20 02:03:04;;;;;;;8.07;4.50;;;11.10;99.90;;;;;;5116341;28;20209;-83
2022/09/20 02:06:03;;;;;;;8.23;3.80;;;11.10;99.90;;;;;;5116389;28;20209;-83
2022/09/20 02:08:44;;;;;;;5.87;3.93;;;11.30;99.90;;;;;;5098813;28;20205;-83
2022/09/20 02:11:15;;;;;;;8.90;4.20;;;11.30;99.90;;;;;;5116263;28;20206;-83
2022/09/20 02:14:02;;;;;;;11.57;4.50;;;11.30;99.90;;;;;;5116013;28;20657;-83
2022/09/20 02:16:50;;;;;;;9.00;4.80;;;11.50;99.90;;;;;;5115124;28;20424;-84
2022/09/20 02:19:56;;;;;;;6.47;4.40;;;11.60;99.90;;;;;;5116191;28;20215;-83
2022/09/20 02:22:37;;;;;;;7.17;3.93;;;11.60;99.90;;;;;;5116006;28;20220;-83
2022/09/20 02:25:15;;;;;;;7.07;3.60;;;11.60;99.90;;;;;;5116104;28;20205;-83
2022/09/20 02:27:58;;;;;;;8.90;3.57;;;11.70;99.90;;;;;;5116104;28;20215;-83
2022/09/20 02:30:39;;;;;;;9.10;3.47;;;11.80;99.90;;;;;;5116192;28;20192;-85
2022/09/20 02:33:45;;;;;;;5.93;3.50;;;11.60;99.90;;;;;;5116769;28;20190;-86
2022/09/20 02:36:34;;;;;;;6.40;3.80;;;11.70;99.90;;;;;;5116865;28;20206;-82
2022/09/20 02:39:11;;;;;;;4.53;3.20;;;11.70;99.90;;;;;;5117079;28;20551;-85
2022/09/20 02:41:52;;;;;;;6.90;4.70;;;11.70;99.90;;;;;;5114969;28;20536;-85
2022/09/20 02:44:29;;;;;;;5.47;3.93;;;11.80;99.90;;;;;;5115884;28;20523;-82
2022/09/20 02:47:02;;;;;;;8.00;3.80;;;11.60;99.90;;;;;;5115609;28;20217;-83
2022/09/20 02:49:41;;;;;;;4.10;3.20;;;11.60;99.90;;;;;;5115577;28;20219;-83
2022/09/20 02:52:16;;;;;;;7.13;3.80;;;11.60;99.90;;;;;;5115777;28;20206;-84
2022/09/20 02:54:52;;;;;;;6.77;3.90;;;11.50;99.90;;;;;;5113898;28;20201;-84
2022/09/20 02:57:25;;;;;;;5.70;3.47;;;11.40;99.90;;;;;;5115409;28;20222;-83
2022/09/20 02:59:58;;;;;;;6.40;3.73;;;11.40;99.90;;;;;;5115501;28;20571;-83
2022/09/20 03:02:30;;;;;;;5.03;3.47;;;11.40;99.90;;;;;;5115598;28;20198;-84
2022/09/20 03:05:16;;;;;;;10.05;4.60;;;11.30;99.90;;;;;;5114470;28;20432;-84
2022/09/20 03:08:01;;;;;;;4.40;3.60;;;11.40;99.90;;;;;;5116050;28;20206;-86
2022/09/20 03:10:36;;;;;;;4.37;3.60;;;11.40;99.90;;;;;;5115138;28;20216;-86
2022/09/20 03:13:15;;;;;;;5.83;3.43;;;11.30;99.90;;;;;;5115237;28;20197;-86
2022/09/20 03:15:57;;;;;;;5.67;3.57;;;11.30;99.90;;;;;;5115015;28;20669;-86
2022/09/20 03:18:33;;;;;;;5.83;3.30;;;11.20;99.90;;;;;;5114987;28;20674;-85
2022/09/20 03:21:15;;;;;;;10.67;3.80;;;11.10;99.90;;;;;;5114717;28;20216;-85
2022/09/20 03:23:54;;;;;;;5.50;3.80;;;11.20;99.90;;;;;;5115015;28;20202;-85
2022/09/20 03:26:34;;;;;;;9.70;4.33;;;11.20;99.90;;;;;;5114619;28;20204;-85
2022/09/20 03:29:05;;;;;;;5.82;4.93;;;11.10;99.90;;;;;;5114673;28;20414;-85
2022/09/20 03:31:44;;;;;;;8.53;4.30;;;11.10;99.90;;;;;;5114666;28;20670;-85
2022/09/20 03:34:24;;;;;;;8.30;3.83;;;11.10;99.90;;;;;;5114909;28;20292;-84
2022/09/20 03:37:26;;;;;;;6.03;3.40;;;11.10;99.90;;;;;;5114964;28;20201;-86
2022/09/20 03:40:19;;;;;;;6.97;3.70;;;11.10;99.90;;;;;;5114506;28;20204;-85
2022/09/20 03:42:52;;;;;;;10.03;3.70;;;11.20;99.90;;;;;;5114408;28;20205;-86
2022/09/20 03:45:45;;;;;;;6.13;3.77;;;11.10;99.90;;;;;;5114287;28;20198;-85
2022/09/20 03:48:49;;;;;;;9.30;3.87;;;11.10;99.90;;;;;;5114745;28;20276;-86
2022/09/20 03:51:25;;;;;;;9.50;3.83;;;11.10;99.90;;;;;;5114001;28;20205;-85
2022/09/20 03:54:20;;;;;;;7.68;4.78;;;11.10;99.90;;;;;;5113834;28;20433;-86
2022/09/20 03:57:27;;;;;;;5.27;3.73;;;11.20;99.90;;;;;;5113911;28;20233;-86
2022/09/20 04:00:07;;;;;;;7.40;3.47;;;11.00;99.90;;;;;;5114454;28;20197;-84
2022/09/20 04:03:05;;;;;;;5.40;3.37;;;11.00;99.90;;;;;;5115289;28;20200;-85
2022/09/20 04:05:44;;;;;;;4.33;3.50;;;11.00;99.90;;;;;;5108158;28;20213;-86
2022/09/20 04:08:28;;;;;;;6.33;4.03;;;10.80;99.90;;;;;;5114883;28;20200;-85
2022/09/20 04:11:05;;;;;;;7.97;4.60;;;10.80;99.90;;;;;;5114530;28;20193;-85
2022/09/20 04:13:37;;;;;;;6.60;4.03;;;10.70;99.90;;;;;;5114917;28;20200;-85
2022/09/20 04:16:14;;;;;;;9.30;4.17;;;10.60;99.90;;;;;;5114948;28;20205;-92
2022/09/20 04:18:45;;;;;;;3.87;3.47;;;10.50;99.90;;;;;;5116852;28;20701;-92
2022/09/20 04:21:22;;;;;;;5.80;3.40;;;10.50;99.90;;;;;;5119200;28;20212;-92
2022/09/20 04:23:57;;;;;;;4.97;3.40;;;10.40;99.90;;;;;;5134088;28;20204;-92
2022/09/20 04:26:28;;;;;;;6.93;3.23;;;10.50;99.90;;;;;;5132901;28;20199;-91
2022/09/20 04:29:02;;;;;;;9.67;3.50;;;10.50;99.90;;;;;;5131098;28;20206;-92
2022/09/20 04:31:41;;;;;;;5.87;3.50;;;10.40;99.90;;;;;;5124815;28;20206;-92
2022/09/20 04:34:18;;;;;;;4.47;3.40;;;10.40;99.90;;;;;;5122758;28;20711;-93
2022/09/20 04:37:01;;;;;;;6.17;3.50;;;10.30;99.90;;;;;;5119161;28;20192;-94
2022/09/20 04:39:55;;;;;;;7.83;4.23;;;10.30;99.90;;;;;;5115386;28;20648;-90
2022/09/20 04:42:57;;;;;;;9.70;4.07;;;10.40;99.90;;;;;;5115404;28;20440;-90
2022/09/20 04:45:59;;;;;;;6.80;3.83;;;10.40;99.90;;;;;;5118307;28;20243;-89
2022/09/20 04:49:09;;;;;;;3.80;3.47;;;10.30;99.90;;;;;;5115194;28;20196;-90
2022/09/20 04:52:14;;;;;;;4.93;3.73;;;10.40;99.90;;;;;;5091014;28;20209;-89
2022/09/20 04:55:29;;;;;;;8.17;4.13;;;10.40;99.90;;;;;;5114464;28;20211;-92
2022/09/20 04:58:34;;;;;;;7.77;3.97;;;10.30;99.90;;;;;;5103802;28;20231;-90
2022/09/20 05:01:41;;;;;;;9.97;4.10;;;10.30;99.90;;;;;;5114704;28;20322;-90
2022/09/20 05:04:35;;;;;;;6.83;4.37;;;10.30;99.90;;;;;;5114389;28;20189;-92
2022/09/20 05:07:39;;;;;;;11.45;4.70;;;10.20;99.90;;;;;;5114338;28;20459;-91
2022/09/20 05:10:29;;;;;;;9.97;4.60;;;10.10;99.90;;;;;;5105429;28;20679;-91
2022/09/20 05:13:11;;;;;;;7.50;4.80;;;10.20;99.90;;;;;;5114561;28;20200;-91
2022/09/20 05:15:56;;;;;;;11.07;4.93;;;10.10;99.90;;;;;;5114589;28;20196;-90
2022/09/20 05:18:59;;;;;;;11.27;4.83;;;10.10;99.90;;;;;;5117791;28;20200;-91
2022/09/20 05:21:47;;;;;;;6.73;4.53;;;10.10;99.90;;;;;;5118517;28;20612;-93
2022/09/20 05:24:45;;;;;;;8.57;4.77;;;10.20;99.90;;;;;;5118654;28;20207;-91
2022/09/20 05:27:33;;;;;;;8.83;5.50;;;10.10;99.90;;;;;;5127677;28;20196;-92
2022/09/20 05:30:06;;;;;;;11.73;5.60;;;10.30;99.90;;;;;;5118237;28;20208;-91
2022/09/20 05:32:41;;;;;;;13.20;6.53;;;10.30;99.90;;;;;;5117691;28;20510;-90
2022/09/20 05:35:18;;;;;;;7.70;4.93;;;10.40;99.90;;;;;;5118360;28;20204;-91
2022/09/20 05:37:54;;;;;;;9.83;4.23;;;10.50;99.90;;;;;;5118053;28;20655;-91
2022/09/20 05:40:31;;;;;;;7.83;4.70;;;10.30;99.90;;;;;;5118077;28;20204;-91
2022/09/20 05:43:10;;;;;;;7.53;4.47;;;10.40;99.90;;;;;;5118217;28;20216;-90
2022/09/20 05:45:58;;;;;;;12.73;5.10;;;10.40;99.90;;;;;;5117776;28;20208;-91
2022/09/20 05:48:39;;;;;;;10.20;4.30;;;10.50;99.90;;;;;;5118192;28;20230;-91
2022/09/20 05:51:19;;;;;;;7.37;4.00;;;10.40;99.90;;;;;;5117841;28;20205;-91
2022/09/20 05:54:07;;;;;;;9.03;4.30;;;10.50;99.90;;;;;;5117644;28;20201;-91
2022/09/20 05:56:59;;;;;;;11.27;4.33;;;10.50;99.90;;;;;;5117411;28;20240;-91
2022/09/20 05:59:49;;;;;;;7.00;4.40;;;10.50;99.90;;;;;;5117804;28;20571;-90
2022/09/20 06:02:32;;;;;;;11.30;4.87;;;10.50;99.90;;;;;;5118925;28;20228;-90
2022/09/20 06:05:10;;;;;;;9.13;4.27;;;10.40;99.90;;;;;;5117944;28;20209;-90
2022/09/20 06:07:58;;;;;;;8.97;4.40;;;10.50;99.90;;;;;;5117691;28;20228;-92
2022/09/20 06:11:00;;;;;;;12.07;5.17;;;10.40;99.90;;;;;;5117846;28;20201;-90
2022/09/20 06:13:38;;;;;;;8.47;4.80;;;10.50;99.90;;;;;;5117661;28;20666;-92
2022/09/20 06:16:25;;;;;;;7.67;4.50;;;10.50;99.90;;;;;;5116278;28;20283;-91
2022/09/20 06:19:04;;;;;;;5.73;4.80;;;10.50;99.90;;;;;;5117318;28;20222;-90
2022/09/20 06:21:38;;;;;;;9.43;5.10;;;10.40;99.90;;;;;;5116781;28;20230;-89
2022/09/20 06:24:21;;;;;;;7.27;5.30;;;10.30;99.90;;;;;;5117494;28;20209;-89
2022/09/20 06:26:55;;;;;;;8.57;5.00;;;10.50;99.90;;;;;;5117116;28;20257;-89
2022/09/20 06:29:32;;;;;;;15.30;5.37;;;10.60;99.90;;;;;;5116846;28;20254;-89
2022/09/20 06:31:59;;;;;;;7.77;5.37;;;10.70;99.90;;;;;;5117518;28;20254;-89
2022/09/20 06:34:32;;;;;;;14.60;5.33;;;10.80;99.90;;;;;;5116972;28;20201;-90
2022/09/20 06:42:51;;;;;;;10.07;4.87;;;10.90;99.90;;;;;;5137462;27;20227;-90
2022/09/20 06:45:21;;;;;;;8.90;5.00;;;11.00;99.90;;;;;;5137438;27;20205;-91
2022/09/20 06:47:54;;;;;;;7.63;5.03;;;11.00;99.90;;;;;;5137505;27;20574;-92
2022/09/20 06:50:24;;;;;;;10.57;5.20;;;11.20;99.90;;;;;;5137794;27;20235;-91
2022/09/20 06:52:53;;;;;;;9.03;5.03;;;11.20;99.90;;;;;;5137764;27;20201;-91
2022/09/20 06:55:27;;;;;;;9.13;5.40;;;11.20;99.90;;;;;;5136970;27;20209;-91
2022/09/20 06:57:55;;;;;;;8.97;5.10;;;11.20;99.90;;;;;;5137764;27;20683;-91
2022/09/20 07:00:22;;;;;;;7.73;5.53;;;11.30;99.90;;;;;;5137296;27;20205;-88
2022/09/20 07:02:49;;;;;;;11.17;5.07;;;11.30;99.90;;;;;;5137017;27;20241;-89
2022/09/20 07:05:20;;;;;;;9.50;5.50;;;11.40;99.90;;;;;;5136570;27;20197;-88
2022/09/20 07:07:47;;;;;;;7.87;5.20;;;11.60;99.90;;;;;;5136819;27;20206;-88
2022/09/20 07:10:14;;;;;;;8.13;4.83;;;11.70;99.90;;;;;;5136537;27;20198;-88
2022/09/20 07:12:42;;;;;;;8.82;5.90;;;11.90;99.90;;;;;;5136117;27;20435;-88
2022/09/20 07:15:11;;;;;;;8.93;5.20;;;11.90;99.90;;;;;;5136519;27;20197;-89
2022/09/20 07:17:37;;;;;;;6.20;4.57;;;12.00;99.90;;;;;;5136422;27;20307;-88
2022/09/20 07:20:05;;;;;;;8.03;4.63;;;12.10;99.90;;;;;;5138304;27;20206;-88
2022/09/20 07:22:32;;;;;;;7.10;4.80;;;12.20;99.90;;;;;;5137757;27;20237;-88
2022/09/20 07:25:01;;;;;;;10.50;4.97;;;12.20;99.90;;;;;;5136148;27;20213;-88
2022/09/20 07:27:29;;;;;;;8.17;4.53;;;12.40;99.90;;;;;;5136105;27;20546;-88
2022/09/20 07:29:56;;;;;;;7.90;4.07;;;12.50;99.90;;;;;;5136386;27;20252;-88
2022/09/20 07:32:25;;;;;;;8.87;4.53;;;12.50;99.90;;;;;;5136198;27;20210;-90
2022/09/20 07:34:52;;;;;;;5.57;4.13;;;12.60;99.90;;;;;;5136502;27;20214;-91
2022/09/20 07:37:19;;;;;;;5.87;4.10;;;12.60;99.90;;;;;;5136934;27;20211;-92
2022/09/20 07:39:46;;;;;;;12.87;4.03;;;12.80;99.90;;;;;;5135904;27;20203;-88
2022/09/20 07:42:12;;;;;;;5.73;3.93;;;12.90;99.90;;;;;;5135529;27;20207;-88
2022/09/20 07:44:41;;;;;;;16.80;4.50;;;12.90;99.90;;;;;;5135893;27;20206;-88
2022/09/20 07:47:10;;;;;;;5.03;3.83;;;13.10;99.90;;;;;;5135767;27;20211;-87
2022/09/20 07:49:38;;;;;;;9.57;4.23;;;13.20;99.90;;;;;;5135268;27;20214;-88
2022/09/20 07:52:06;;;;;;;6.20;3.67;;;13.40;99.90;;;;;;5136794;27;20556;-87
2022/09/20 07:54:34;;;;;;;12.30;3.90;;;13.50;99.90;;;;;;5134616;27;20207;-87
2022/09/20 07:57:00;;;;;;;13.60;3.93;;;13.50;99.90;;;;;;5135715;27;20231;-87
2022/09/20 07:59:28;;;;;;;8.88;4.40;;;13.60;99.90;;;;;;5135037;27;20416;-84
2022/09/20 08:01:57;;;;;;;5.83;3.87;;;13.80;99.90;;;;;;5134266;27;20231;-85
2022/09/20 08:04:24;;;;;;;7.47;3.87;;;13.90;99.90;;;;;;5135119;27;20207;-86
2022/09/20 08:06:52;;;;;;;6.53;3.33;;;13.80;99.90;;;;;;5135094;27;20196;-86
2022/09/20 08:09:19;;;;;;;8.27;3.43;;;14.00;99.90;;;;;;5134944;27;20200;-85
2022/09/20 08:11:46;;;;;;;8.57;4.10;;;14.10;99.90;;;;;;5134937;27;20195;-83
2022/09/20 08:14:15;;;;;;;4.10;2.73;;;14.10;99.90;;;;;;5128016;27;20192;-83
2022/09/20 08:16:43;;;;;;;3.75;3.20;;;14.40;99.90;;;;;;5122025;27;25150;-83
2022/09/20 08:19:15;;;;;;;5.13;2.90;;;14.50;99.90;;;;;;5114056;28;20592;-85
2022/09/20 08:21:43;;;;;;;4.27;2.63;;;14.80;99.90;;;;;;5121174;27;20227;-83
2022/09/20 08:24:11;;;;;;;8.43;3.10;;;15.00;99.90;;;;;;5134304;27;20193;-84
2022/09/20 08:26:39;;;;;;;9.57;3.50;;;15.00;99.90;;;;;;5134413;27;20303;-84
2022/09/20 08:29:06;;;;;;;9.43;3.40;;;15.00;99.90;;;;;;5134571;27;20189;-83
2022/09/20 08:31:35;;;;;;;3.30;2.60;;;15.20;99.90;;;;;;5133997;27;20576;-88
2022/09/20 08:34:03;;;;;;;6.53;3.07;;;15.30;99.90;;;;;;5135379;27;20190;-89
2022/09/20 08:36:33;;;;;;;5.73;2.43;;;15.40;99.90;;;;;;5135320;27;20206;-88
2022/09/20 08:39:00;;;;;;;8.03;2.57;;;15.40;99.90;;;;;;5127929;28;20664;-88
2022/09/20 08:41:40;;;;;;;5.00;2.37;;;15.20;99.90;;;;;;5128859;28;20207;-90
2022/09/20 08:44:23;;;;;;;4.70;2.87;;;15.10;99.90;;;;;;5122891;28;20199;-85
2022/09/20 08:46:56;;;;;;;5.67;2.60;;;15.00;99.90;;;;;;5120288;28;20237;-88
2022/09/20 08:49:27;;;;;;;4.07;2.40;;;14.70;99.90;;;;;;5113916;28;20223;-88
2022/09/20 08:51:56;;;;;;;7.23;2.70;;;14.80;99.90;;;;;;5115116;27;20204;-85
2022/09/20 08:54:24;;;;;;;5.53;2.50;;;14.90;99.90;;;;;;5131632;27;20538;-85
2022/09/20 08:56:53;;;;;;;5.53;1.80;;;14.90;99.90;;;;;;5127514;27;20224;-85
2022/09/20 08:59:22;;;;;;;3.20;1.50;;;15.00;99.90;;;;;;5126864;27;20202;-85
2022/09/20 09:01:50;;;;;;;4.30;1.83;;;15.20;99.90;;;;;;5127945;27;20220;-85
2022/09/20 09:04:20;;;;;;;4.53;1.30;;;15.40;99.90;;;;;;5128208;27;20216;-86
2022/09/20 09:06:48;;;;;;;2.53;1.20;;;15.40;99.90;;;;;;5129040;27;20209;-85
2022/09/20 09:09:25;;;;;;;2.13;1.00;;;15.50;99.90;;;;;;5131777;27;20194;-87
2022/09/20 09:11:55;;;;;;;2.43;1.40;;;15.50;99.90;;;;;;5140129;27;20204;-89
2022/09/20 09:17:12;;;;;;;3.83;1.20;;;15.70;99.90;;;;;;5138153;27;20191;-89
2022/09/20 09:19:47;;;;;;;2.47;0.77;;;15.80;99.90;;;;;;5138602;27;20572;-89
2022/09/20 09:22:20;;;;;;;2.97;0.90;;;15.90;99.90;;;;;;5138908;27;20230;-89
2022/09/20 09:25:07;;;;;;;4.57;1.10;;;16.00;99.90;;;;;;5138407;27;20201;-88
2022/09/20 09:27:35;;;;;;;3.60;1.10;;;16.20;99.90;;;;;;5140057;27;20651;-87
2022/09/20 09:30:02;;;;;;;3.07;1.10;;;16.20;99.90;;;;;;5139217;27;20233;-87
2022/09/20 09:32:31;;;;;;;2.87;1.17;;;16.10;99.90;;;;;;5138408;27;20202;-88
2022/09/20 09:35:25;;;;;;;3.83;1.10;;;16.40;99.90;;;;;;5138644;27;20233;-88
2022/09/20 09:37:56;;;;;;;4.73;1.00;;;16.40;99.90;;;;;;5138571;27;20208;-87
2022/09/20 09:40:24;;;;;;;1.60;0.70;;;16.50;99.90;;;;;;5138524;27;20204;-87
2022/09/20 09:42:54;;;;;;;2.90;0.83;;;16.70;99.90;;;;;;5138290;27;20234;-87
2022/09/20 09:45:29;;;;;;;2.30;0.87;;;16.50;99.90;;;;;;5137903;27;20200;-87
2022/09/20 09:47:58;;;;;;;1.60;0.93;;;16.50;99.90;;;;;;5138696;27;20192;-88
2022/09/20 09:50:29;;;;;;;1.73;1.20;;;16.50;99.90;;;;;;5138713;27;20652;-88
2022/09/20 09:53:10;;;;;;;5.33;1.30;;;16.50;99.90;;;;;;5137746;27;20207;-87
2022/09/20 09:56:00;;;;;;;3.93;1.33;;;16.20;99.90;;;;;;5138298;27;20211;-83
2022/09/20 09:58:43;;;;;;;3.97;1.00;;;16.40;99.90;;;;;;5127620;27;20203;-84
2022/09/20 10:01:23;;;;;;;3.07;1.20;;;16.50;99.90;;;;;;5138963;27;20235;-88
2022/09/20 10:03:58;;;;;;;2.93;1.10;;;16.50;99.90;;;;;;5150046;27;20232;-86
2022/09/20 10:06:30;;;;;;;2.93;0.83;;;16.40;99.90;;;;;;5158925;27;20195;-87
2022/09/20 10:09:25;;;;;;;1.33;0.93;;;16.40;99.90;;;;;;5150847;27;20208;-88
2022/09/20 10:12:08;;;;;;;2.03;0.80;;;16.10;99.90;;;;;;5156617;27;20674;-87
2022/09/20 10:14:56;;;;;;;3.13;0.80;;;16.10;99.90;;;;;;5146568;27;20240;-80
2022/09/20 10:17:38;;;;;;;4.03;1.07;;;16.30;99.90;;;;;;5136997;27;20230;-77
2022/09/20 10:20:27;;;;;;;4.27;1.30;;;16.40;99.90;;;;;;5137131;27;20188;-77
2022/09/20 10:23:04;;;;;;;2.33;1.15;;;16.30;99.90;;;;;;5136238;27;20450;-78
2022/09/20 10:25:42;;;;;;;5.40;1.27;;;16.70;99.90;;;;;;5140453;27;20203;-77
2022/09/20 10:28:26;;;;;;;3.07;1.10;;;16.50;99.90;;;;;;5142645;27;20201;-88
2022/09/20 10:31:06;;;;;;;4.60;1.30;;;16.60;99.90;;;;;;5150979;27;20203;-88
2022/09/20 10:33:37;;;;;;;3.33;1.30;;;16.50;99.90;;;;;;5150284;27;20428;-88
2022/09/20 10:36:15;;;;;;;5.83;1.10;;;16.10;99.90;;;;;;5150983;27;20207;-88
2022/09/20 10:38:51;;;;;;;5.50;1.50;;;15.90;99.90;;;;;;5145403;27;20254;-87
2022/09/20 10:44:37;;;;;;;3.40;1.50;;;16.00;99.90;;;;;;5141095;27;20442;-87
2022/09/20 10:47:13;;;;;;;7.53;1.53;;;15.90;99.90;;;;;;5137778;27;20575;-88
2022/09/20 10:49:43;;;;;;;6.90;1.23;;;15.90;99.90;;;;;;5137314;27;20211;-87
2022/09/20 10:52:30;;;;;;;40.37;4.10;;;16.00;99.90;;;;;;5137428;27;20256;-79
2022/09/20 10:55:24;;;;;;;2.30;1.00;;;16.20;99.90;;;;;;5135966;27;20206;-84
2022/09/20 10:58:27;;;;;;;6.70;2.20;;;16.30;99.90;;;;;;5135990;27;20231;-85
2022/09/20 11:01:01;;;;;;;4.03;1.20;;;16.40;99.90;;;;;;5133049;27;20233;-86
2022/09/20 11:03:42;;;;;;;5.03;1.10;;;16.40;99.90;;;;;;5137343;27;20228;-85
2022/09/20 11:06:16;;;;;;;4.27;1.10;;;16.40;99.90;;;;;;5133819;27;20203;-85
2022/09/20 11:08:49;;;;;;;5.67;1.30;;;16.70;99.90;;;;;;5135744;27;20200;-84
2022/09/20 11:11:21;;;;;;;5.13;1.50;;;16.70;99.90;;;;;;5126792;27;20207;-84
2022/09/20 11:13:57;;;;;;;6.40;0.87;;;16.80;99.90;;;;;;5114647;28;20213;-84
2022/09/20 11:16:28;;;;;;;4.17;1.13;;;16.90;99.90;;;;;;5114089;28;20213;-84
2022/09/20 11:19:00;;;;;;;2.93;0.90;;;16.70;99.90;;;;;;5129445;27;20206;-84
2022/09/20 11:21:32;;;;;;;2.33;1.00;;;16.90;99.90;;;;;;5114897;28;20215;-84
2022/09/20 11:24:03;;;;;;;3.83;1.07;;;17.00;99.90;;;;;;5113898;28;20221;-84
2022/09/20 11:26:36;;;;;;;2.83;0.90;;;17.10;99.90;;;;;;5114848;28;20198;-85
2022/09/20 11:29:13;;;;;;;2.93;0.73;;;16.70;99.90;;;;;;5115023;28;20209;-82
2022/09/20 11:31:50;;;;;;;2.93;1.00;;;16.50;99.90;;;;;;5119885;27;20201;-85
2022/09/20 11:34:29;;;;;;;4.10;0.97;;;16.60;99.90;;;;;;5107200;27;20208;-86
2022/09/20 11:37:01;;;;;;;1.27;0.67;;;16.70;99.90;;;;;;5134371;27;20256;-85
2022/09/20 11:39:39;;;;;;;1.97;1.10;;;16.70;99.90;;;;;;5121435;27;20202;-88
2022/09/20 11:42:07;;;;;;;4.07;0.73;;;16.70;99.90;;;;;;5125550;27;20201;-87
2022/09/20 11:44:41;;;;;;;1.17;0.90;;;16.80;99.90;;;;;;5131401;27;20224;-86
2022/09/20 11:47:14;;;;;;;1.67;0.80;;;17.00;99.90;;;;;;5135506;27;20562;-89
2022/09/20 11:49:58;;;;;;;1.50;1.00;;;16.90;99.90;;;;;;5135020;27;20279;-88
2022/09/20 11:52:39;;;;;;;2.97;1.13;;;16.70;99.90;;;;;;5134170;27;20204;-88
2022/09/20 11:55:33;;;;;;;3.27;1.00;;;17.00;99.90;;;;;;5134566;27;20221;-87
2022/09/20 11:58:06;;;;;;;2.93;1.10;;;17.30;99.90;;;;;;5133670;27;20248;-83
2022/09/20 12:00:36;;;;;;;2.00;0.50;;;17.40;99.90;;;;;;5133854;27;20563;-83
2022/09/20 12:03:08;;;;;;;1.20;0.80;;;17.30;99.90;;;;;;5133950;27;20328;-83
2022/09/20 12:05:39;;;;;;;2.37;1.10;;;17.30;99.90;;;;;;5134298;27;20203;-84
2022/09/20 12:08:17;;;;;;;1.47;0.50;;;17.50;99.90;;;;;;5134597;27;20731;-83
2022/09/20 12:10:56;;;;;;;1.17;0.73;;;17.70;99.90;;;;;;5134391;27;20188;-83
2022/09/20 12:13:26;;;;;;;3.20;1.17;;;17.80;99.90;;;;;;5134309;27;20207;-83
2022/09/20 12:16:05;;;;;;;3.40;1.00;;;17.80;99.90;;;;;;5134461;27;20211;-83
2022/09/20 12:18:59;;;;;;;3.35;0.93;;;17.50;99.90;;;;;;5134702;27;20419;-86
2022/09/20 12:21:28;;;;;;;2.13;1.10;;;17.70;99.90;;;;;;5112712;28;20215;-85
2022/09/20 12:24:20;;;;;;;2.87;0.80;;;17.70;99.90;;;;;;5113193;28;20226;-83
2022/09/20 12:26:49;;;;;;;1.37;0.87;;;17.50;99.90;;;;;;5113321;28;20203;-83
2022/09/20 12:29:54;;;;;;;1.50;0.90;;;17.20;99.90;;;;;;5114242;28;20198;-84
2022/09/20 12:32:39;;;;;;;1.63;1.20;;;17.00;99.90;;;;;;5113844;28;20246;-84
2022/09/20 12:35:58;;;;;;;2.53;1.57;;;16.70;99.90;;;;;;5113732;28;20232;-84
2022/09/20 12:38:36;;;;;;;1.80;1.30;;;16.70;99.90;;;;;;5113538;28;20203;-84
2022/09/20 12:41:13;;;;;;;6.03;2.27;;;16.20;99.90;;;;;;5113889;28;20911;-85
2022/09/20 12:43:54;;;;;;;5.43;1.37;;;16.20;99.90;;;;;;5114084;28;20260;-87
2022/09/20 12:46:29;;;;;;;2.47;1.57;;;16.20;99.90;;;;;;5114362;28;20191;-87
2022/09/20 12:55:32;;;;;;;2.57;1.60;;;15.70;99.90;;;;;;5114438;28;20264;-88
2022/09/20 12:58:02;;;;;;;2.13;1.47;;;15.50;99.90;;;;;;5114160;28;20232;-88
2022/09/20 13:00:37;;;;;;;4.17;2.10;;;15.30;99.90;;;;;;5114454;28;20571;-88
2022/09/20 13:03:12;;;;;;;5.07;2.60;;;15.10;99.90;;;;;;5114285;28;20224;-88
2022/09/20 13:05:41;;;;;;;3.67;2.20;;;15.00;99.90;;;;;;5114165;28;20701;-88
2022/09/20 13:08:18;;;;;;;5.27;2.57;;;14.90;99.90;;;;;;5113984;28;20196;-87
2022/09/20 13:10:50;;;;;;;4.03;2.50;;;15.00;99.90;;;;;;5114360;28;20197;-88
2022/09/20 13:13:40;;;;;;;4.70;2.60;;;14.90;99.90;;;;;;5114101;28;20254;-88
2022/09/20 13:16:08;;;;;;;2.33;2.13;;;14.70;99.90;;;;;;5114049;28;20548;-88
2022/09/20 13:18:36;;;;;;;9.33;2.37;;;14.70;99.90;;;;;;5113839;28;20656;-87
2022/09/20 13:21:06;;;;;;;3.67;1.80;;;14.80;99.90;;;;;;5114234;28;20203;-87
2022/09/20 13:23:46;;;;;;;1.93;1.80;;;14.90;99.90;;;;;;5113860;28;20228;-87
2022/09/20 13:26:15;;;;;;;3.67;1.80;;;14.90;99.90;;;;;;5114086;28;20201;-87
2022/09/20 13:28:50;;;;;;;4.83;1.90;;;14.90;99.90;;;;;;5114013;28;20203;-88
2022/09/20 13:31:34;;;;;;;3.15;2.03;;;15.00;99.90;;;;;;5113323;28;20893;-87
2022/09/20 13:34:22;;;;;;;2.33;1.60;;;15.00;99.90;;;;;;5112331;28;20209;-88
2022/09/20 13:36:53;;;;;;;3.17;1.50;;;15.00;99.90;;;;;;5113861;28;20265;-87
2022/09/20 13:39:26;;;;;;;2.70;1.30;;;15.00;99.90;;;;;;5116601;28;20204;-87
2022/09/20 13:42:01;;;;;;;2.77;1.50;;;15.00;99.90;;;;;;5117828;28;20212;-86
2022/09/20 13:44:29;;;;;;;3.13;1.37;;;15.10;99.90;;;;;;5117120;28;20707;-86
2022/09/20 13:46:56;;;;;;;1.17;0.90;;;15.40;99.90;;;;;;5117430;28;20194;-91
2022/09/20 13:49:23;;;;;;;2.80;1.20;;;15.40;99.90;;;;;;5116808;28;20197;-87
2022/09/20 13:51:50;;;;;;;1.40;1.30;;;15.50;99.90;;;;;;5116707;28;20207;-88
2022/09/20 13:54:20;;;;;;;3.60;1.60;;;15.50;99.90;;;;;;5116602;27;20216;-87
2022/09/20 13:56:47;;;;;;;5.97;1.33;;;15.50;99.90;;;;;;5136584;27;20239;-87
2022/09/20 13:59:18;;;;;;;1.90;1.00;;;15.60;99.90;;;;;;5137275;27;20219;-86